Time;durP1;ratioP1;P1;durP2;ratioP2;P2;SDS_P1;SDS_P2;PMS_P1;PMS_P2;Temp;Humidity;BMP_temperature;BMP_pressure;BME280_temperature;BME280_humidity;BME280_pressure;Samples;Min_cycle;Max_cycle;Signal;HPM_P1;HPM_P2
2021/01/09 00:01:43;;;;;;;235.95;93.60;;;;;;;-1.33;72.01;97042.19;1825899;77;25772;-84
2021/01/09 00:04:11;;;;;;;238.55;90.77;;;;;;;-1.38;72.04;97043.94;1838644;77;28432;-83
2021/01/09 00:06:40;;;;;;;236.28;92.72;;;;;;;-1.37;72.11;97042.97;1842131;77;25700;-85
2021/01/09 00:09:08;;;;;;;226.73;90.92;;;;;;;-1.38;72.14;97040.45;1809495;77;25828;-83
2021/01/09 00:11:35;;;;;;;213.97;85.25;;;;;;;-1.39;72.21;97043.59;1809560;77;26586;-86
2021/01/09 00:14:04;;;;;;;239.50;90.83;;;;;;;-1.34;72.19;97051.95;1809637;77;25270;-81
2021/01/09 00:16:31;;;;;;;249.75;93.30;;;;;;;-1.36;72.19;97045.95;1809497;77;28884;-81
2021/01/09 00:18:59;;;;;;;239.78;91.82;;;;;;;-1.38;72.24;97051.05;1809512;77;26282;-82
2021/01/09 00:24:14;;;;;;;266.57;102.27;;;;;;;-1.29;72.38;97039.08;1873127;76;34840;-85
2021/01/09 00:26:41;;;;;;;273.45;108.05;;;;;;;-1.30;72.36;97044.03;1809383;77;26502;-84
2021/01/09 00:29:09;;;;;;;272.20;106.17;;;;;;;-1.28;72.39;97051.34;1818850;77;27549;-86
2021/01/09 00:31:36;;;;;;;259.70;103.27;;;;;;;-1.21;72.45;97051.61;1842319;77;26144;-86
2021/01/09 00:34:04;;;;;;;265.68;106.32;;;;;;;-1.19;72.42;97051.78;1811270;77;26376;-82
2021/01/09 00:36:32;;;;;;;242.82;102.30;;;;;;;-1.15;72.44;97050.52;1811222;77;25699;-82
2021/01/09 00:38:59;;;;;;;262.68;103.65;;;;;;;-1.18;72.39;97048.16;1803030;77;25563;-84
2021/01/09 00:41:32;;;;;;;252.87;103.92;;;;;;;-1.22;72.23;97036.21;1818899;77;29275;-86
2021/01/09 00:44:00;;;;;;;309.87;117.17;;;;;;;-1.22;72.38;97041.51;1841590;77;25711;-81
2021/01/09 00:46:27;;;;;;;262.75;106.35;;;;;;;-1.19;72.44;97046.48;1816013;77;25782;-86
2021/01/09 00:48:55;;;;;;;245.70;103.00;;;;;;;-1.14;72.45;97052.19;1838476;77;25714;-82
2021/01/09 00:51:22;;;;;;;241.27;99.17;;;;;;;-1.19;72.39;97048.30;1802592;77;26019;-85
2021/01/09 00:53:49;;;;;;;251.00;101.35;;;;;;;-1.19;72.48;97054.43;1803969;77;27750;-86
2021/01/09 00:56:18;;;;;;;240.10;100.87;;;;;;;-1.17;72.47;97055.12;1818853;77;25746;-84
2021/01/09 00:58:47;;;;;;;244.07;100.97;;;;;;;-1.15;72.44;97057.14;1842498;77;25662;-82
2021/01/09 01:01:14;;;;;;;243.02;97.10;;;;;;;-1.14;72.48;97056.16;1838643;77;25714;-82
2021/01/09 01:03:42;;;;;;;246.75;97.82;;;;;;;-1.18;72.48;97052.62;1817635;77;25774;-83
2021/01/09 01:06:11;;;;;;;244.75;98.17;;;;;;;-1.14;72.60;97057.48;1809946;77;28515;-82
2021/01/09 01:08:38;;;;;;;251.98;101.25;;;;;;;-1.24;72.50;97056.70;1829270;77;25683;-86
2021/01/09 01:11:08;;;;;;;234.00;96.87;;;;;;;-1.23;72.68;97058.37;1852921;77;25696;-83
2021/01/09 01:13:35;;;;;;;231.45;97.70;;;;;;;-1.22;72.77;97062.70;1846895;77;25744;-81
2021/01/09 01:16:03;;;;;;;232.98;95.67;;;;;;;-1.21;72.79;97058.23;1831003;76;25708;-84
2021/01/09 01:18:30;;;;;;;230.05;96.35;;;;;;;-1.22;72.82;97064.02;1824738;77;27491;-83
2021/01/09 01:20:57;;;;;;;230.30;96.22;;;;;;;-1.22;72.87;97061.86;1852331;77;26217;-84
2021/01/09 01:23:25;;;;;;;234.47;96.85;;;;;;;-1.26;72.84;97055.17;1847680;76;25335;-85
2021/01/09 01:25:52;;;;;;;221.60;92.37;;;;;;;-1.27;72.90;97062.28;1817161;77;25707;-85
2021/01/09 01:28:19;;;;;;;227.45;93.78;;;;;;;-1.25;72.96;97062.98;1818886;77;25828;-83
2021/01/09 01:30:50;;;;;;;223.95;96.57;;;;;;;-1.32;72.87;97059.23;1854359;77;27580;-85
2021/01/09 01:33:17;;;;;;;220.63;92.37;;;;;;;-1.30;73.06;97055.95;1851924;77;25764;-84
2021/01/09 01:35:45;;;;;;;221.53;92.97;;;;;;;-1.26;73.08;97055.17;1851647;77;25293;-84
2021/01/09 01:38:12;;;;;;;228.25;93.47;;;;;;;-1.21;73.12;97056.39;1851636;77;26164;-85
2021/01/09 01:40:39;;;;;;;228.37;94.90;;;;;;;-1.22;73.04;97057.40;1851746;77;25815;-84
2021/01/09 01:43:14;;;;;;;242.20;98.70;;;;;;;-1.17;73.16;97054.29;1851610;77;27542;-82
2021/01/09 01:45:43;;;;;;;242.43;99.60;;;;;;;-1.18;73.11;97054.78;1826527;77;25778;-80
2021/01/09 01:48:12;;;;;;;235.82;96.70;;;;;;;-1.17;73.17;97052.97;1851751;77;25626;-86
2021/01/09 01:50:40;;;;;;;253.35;98.92;;;;;;;-1.15;73.25;97055.81;1826845;77;25312;-81
2021/01/09 01:53:07;;;;;;;244.18;100.62;;;;;;;-1.17;73.25;97061.75;1853189;77;26200;-84
2021/01/09 01:55:36;;;;;;;265.32;106.07;;;;;;;-1.18;73.29;97063.21;1813007;77;27490;-81
2021/01/09 01:58:03;;;;;;;236.10;95.00;;;;;;;-1.16;73.34;97056.80;1851649;77;25728;-85
2021/01/09 02:00:30;;;;;;;193.30;78.17;;;;;;;-1.14;73.40;97064.11;1851741;77;25680;-83
2021/01/09 02:03:01;;;;;;;178.65;74.40;;;;;;;-1.09;73.42;97063.16;1841925;77;25374;-80
2021/01/09 02:05:40;;;;;;;207.12;83.33;;;;;;;-1.04;73.44;97057.92;1816499;77;25675;-81
2021/01/09 02:08:11;;;;;;;156.52;64.00;;;;;;;-0.98;73.45;97062.64;1828216;77;27429;-85
2021/01/09 02:10:41;;;;;;;154.72;66.53;;;;;;;-1.03;73.30;97057.77;1828287;77;25835;-81
2021/01/09 02:13:26;;;;;;;120.05;52.10;;;;;;;-1.07;73.39;97062.18;1841472;77;25704;-84
2021/01/09 02:15:54;;;;;;;74.65;34.43;;;;;;;-1.04;73.45;97064.55;1840006;77;25653;-82
2021/01/09 02:18:22;;;;;;;96.63;43.30;;;;;;;-1.01;73.39;97058.95;1826913;77;25744;-82
2021/01/09 02:20:52;;;;;;;100.90;46.25;;;;;;;-0.96;73.37;97059.33;1851581;77;27546;-83
2021/01/09 02:23:25;;;;;;;98.72;45.88;;;;;;;-0.92;73.41;97058.89;1844012;77;25837;-82
2021/01/09 02:25:53;;;;;;;97.95;47.35;;;;;;;-0.89;73.35;97056.45;1836624;77;25908;-86
2021/01/09 02:28:20;;;;;;;86.95;41.58;;;;;;;-0.83;73.41;97066.44;1852535;77;26245;-85
2021/01/09 02:30:49;;;;;;;87.12;42.23;;;;;;;-0.82;73.40;97062.80;1826249;77;25655;-83
2021/01/09 02:33:19;;;;;;;83.17;41.35;;;;;;;-0.87;73.28;97065.09;1840704;77;27486;-84
2021/01/09 02:35:48;;;;;;;105.07;48.60;;;;;;;-0.85;73.39;97072.41;1851635;77;25317;-86
2021/01/09 02:38:16;;;;;;;117.95;52.43;;;;;;;-0.83;73.42;97068.59;1827654;77;26450;-83
2021/01/09 02:40:44;;;;;;;128.82;53.65;;;;;;;-0.81;73.37;97072.42;1853765;77;26639;-85
2021/01/09 02:43:14;;;;;;;129.80;54.90;;;;;;;-0.90;73.32;97069.34;1851640;77;25732;-85
2021/01/09 02:45:41;;;;;;;139.10;58.35;;;;;;;-0.95;73.37;97068.95;1851528;77;28487;-84
2021/01/09 02:48:09;;;;;;;124.40;56.05;;;;;;;-0.95;73.46;97079.55;1851426;77;25839;-81
2021/01/09 02:50:36;;;;;;;121.77;54.05;;;;;;;-0.99;73.41;97070.24;1851512;77;25822;-86
2021/01/09 02:53:04;;;;;;;117.62;54.25;;;;;;;-0.99;73.45;97067.59;1851583;77;25794;-81
2021/01/09 02:55:31;;;;;;;123.22;55.33;;;;;;;-1.00;73.52;97073.87;1829808;77;25755;-83
2021/01/09 02:57:58;;;;;;;115.80;54.30;;;;;;;-0.94;73.57;97073.27;1841643;77;27611;-82
2021/01/09 03:00:26;;;;;;;121.60;52.95;;;;;;;-0.97;73.54;97069.61;1818019;77;26354;-81
2021/01/09 03:02:53;;;;;;;124.53;54.67;;;;;;;-0.99;73.55;97063.62;1818020;77;25746;-83
2021/01/09 03:05:20;;;;;;;116.05;52.70;;;;;;;-1.01;73.53;97061.61;1818055;77;25740;-86
2021/01/09 03:07:48;;;;;;;124.75;55.23;;;;;;;-0.96;73.59;97064.63;1832149;77;25777;-86
2021/01/09 03:10:15;;;;;;;120.65;54.95;;;;;;;-0.93;73.53;97061.69;1818186;77;27475;-82
2021/01/09 03:12:42;;;;;;;121.77;53.13;;;;;;;-0.93;73.45;97058.55;1831771;77;26110;-86
2021/01/09 03:15:11;;;;;;;126.60;55.30;;;;;;;-0.92;73.40;97059.38;1829799;77;25864;-85
2021/01/09 03:17:39;;;;;;;119.17;52.33;;;;;;;-0.92;73.36;97060.70;1851481;77;25835;-86
2021/01/09 03:20:07;;;;;;;113.60;51.98;;;;;;;-0.94;73.25;97062.67;1851619;77;25790;-85
2021/01/09 03:22:35;;;;;;;112.22;50.90;;;;;;;-0.96;73.21;97060.66;1843325;77;28447;-82
2021/01/09 03:25:04;;;;;;;107.95;50.60;;;;;;;-1.02;73.18;97056.80;1807290;78;25719;-81
2021/01/09 03:27:31;;;;;;;107.75;49.60;;;;;;;-1.05;73.12;97061.55;1792287;78;26356;-80
2021/01/09 03:29:58;;;;;;;111.28;49.98;;;;;;;-1.10;73.09;97064.66;1795204;78;25681;-85
2021/01/09 03:32:26;;;;;;;104.25;48.10;;;;;;;-1.14;73.12;97065.92;1802174;78;26439;-81
2021/01/09 03:34:53;;;;;;;103.27;46.53;;;;;;;-1.14;73.11;97068.08;1796619;78;27471;-84
2021/01/09 03:37:20;;;;;;;86.60;40.00;;;;;;;-1.15;73.09;97066.41;1811262;77;25727;-85
2021/01/09 03:39:48;;;;;;;87.60;38.45;;;;;;;-1.22;73.04;97062.70;1793146;78;25773;-81
2021/01/09 03:42:15;;;;;;;87.40;41.88;;;;;;;-1.27;73.08;97067.58;1814219;78;25746;-84
2021/01/09 03:44:42;;;;;;;94.28;43.02;;;;;;;-1.37;73.12;97073.41;1802789;78;25861;-87
2021/01/09 03:47:10;;;;;;;88.37;41.05;;;;;;;-1.36;73.29;97080.38;1802186;78;27476;-82
2021/01/09 03:49:37;;;;;;;101.80;45.35;;;;;;;-1.35;73.26;97080.73;1805303;78;26249;-82
2021/01/09 03:52:05;;;;;;;84.10;40.98;;;;;;;-1.36;73.38;97079.06;1805179;78;25873;-85
2021/01/09 03:54:32;;;;;;;82.78;40.90;;;;;;;-1.36;73.47;97085.67;1799427;78;25804;-83
2021/01/09 03:56:59;;;;;;;80.53;38.65;;;;;;;-1.32;73.54;97089.68;1796471;78;25784;-82
2021/01/09 03:59:27;;;;;;;69.90;33.78;;;;;;;-1.30;73.59;97086.41;1788863;78;28458;-83
2021/01/09 04:01:54;;;;;;;74.58;33.48;;;;;;;-1.30;73.53;97087.73;1802034;78;25749;-86
2021/01/09 04:04:21;;;;;;;67.75;32.10;;;;;;;-1.25;73.58;97089.95;1814210;78;25816;-87
2021/01/09 04:06:49;;;;;;;94.17;42.00;;;;;;;-1.20;73.59;97085.03;1820947;78;25688;-85
2021/01/09 04:09:16;;;;;;;77.12;37.17;;;;;;;-1.14;73.55;97090.59;1802652;78;25730;-86
2021/01/09 04:11:43;;;;;;;74.30;35.08;;;;;;;-1.11;73.48;97088.98;1816911;78;27550;-82
2021/01/09 04:14:11;;;;;;;71.62;32.10;;;;;;;-1.09;73.44;97094.95;1811745;78;26051;-84
2021/01/09 04:16:38;;;;;;;68.10;32.85;;;;;;;-1.05;73.38;97088.87;1820249;78;25841;-81
2021/01/09 04:19:05;;;;;;;65.25;30.77;;;;;;;-1.04;73.32;97093.19;1820906;78;25766;-84
2021/01/09 04:21:44;;;;;;;58.35;27.32;;;;;;;-1.03;73.29;97096.19;1817350;78;25925;-81
2021/01/09 04:24:13;;;;;;;51.25;23.35;;;;;;;-1.03;73.21;97095.35;1800216;77;27594;-83
2021/01/09 04:26:40;;;;;;;46.50;24.10;;;;;;;-1.14;73.06;97093.25;1800326;78;25798;-81
2021/01/09 04:29:08;;;;;;;75.28;35.05;;;;;;;-1.17;73.15;97096.17;1810814;78;25734;-85
2021/01/09 04:31:35;;;;;;;55.52;28.38;;;;;;;-1.17;73.15;97098.83;1820965;78;26362;-86
2021/01/09 04:34:02;;;;;;;69.25;33.02;;;;;;;-1.15;73.22;97095.55;1820919;78;25797;-83
2021/01/09 04:36:29;;;;;;;73.22;34.98;;;;;;;-1.15;73.17;97092.90;1820847;78;27491;-81
2021/01/09 04:38:57;;;;;;;79.42;35.28;;;;;;;-1.15;73.13;97100.01;1813867;77;25821;-82
2021/01/09 04:41:26;;;;;;;88.58;38.25;;;;;;;-1.22;73.06;97096.29;1800469;78;25775;-86
2021/01/09 04:43:54;;;;;;;73.97;32.53;;;;;;;-1.22;73.16;97097.61;1815253;77;25447;-82
2021/01/09 04:46:24;;;;;;;68.20;30.00;;;;;;;-1.20;73.20;97097.78;1820940;78;25830;-85
2021/01/09 04:48:51;;;;;;;72.17;32.00;;;;;;;-1.24;73.14;97097.75;1806385;78;27488;-84
2021/01/09 04:51:19;;;;;;;68.07;31.80;;;;;;;-1.25;73.17;97097.41;1817266;78;25749;-84
2021/01/09 04:53:48;;;;;;;60.85;29.60;;;;;;;-1.25;73.20;97096.08;1788675;78;25702;-85
2021/01/09 04:56:16;;;;;;;74.55;36.58;;;;;;;-1.23;73.21;97098.10;1789189;78;25685;-82
2021/01/09 04:58:43;;;;;;;90.75;35.10;;;;;;;-1.20;73.21;97103.57;1766603;79;25761;-81
2021/01/09 05:01:10;;;;;;;71.15;28.62;;;;;;;-1.16;73.24;97107.12;1797571;78;27632;-82
2021/01/09 05:03:38;;;;;;;58.48;26.97;;;;;;;-1.14;73.15;97099.86;1815138;77;25705;-82
2021/01/09 05:06:06;;;;;;;43.48;21.40;;;;;;;-1.11;73.12;97108.02;1813365;78;25777;-85
2021/01/09 05:08:33;;;;;;;38.08;19.90;;;;;;;-1.07;73.05;97109.86;1803728;78;25801;-84
2021/01/09 05:11:03;;;;;;;39.30;19.42;;;;;;;-1.05;73.01;97109.23;1802230;78;25738;-85
2021/01/09 05:13:31;;;;;;;39.03;20.55;;;;;;;-1.00;73.00;97112.28;1761245;78;28488;-86
2021/01/09 05:15:58;;;;;;;38.35;19.82;;;;;;;-0.99;72.93;97107.34;1815101;78;25711;-85
2021/01/09 05:18:26;;;;;;;34.65;16.90;;;;;;;-1.00;72.89;97112.28;1800550;78;25764;-84
2021/01/09 05:20:57;;;;;;;32.23;16.75;;;;;;;-1.10;72.74;97115.82;1813101;78;25766;-85
2021/01/09 05:23:28;;;;;;;32.03;16.75;;;;;;;-1.20;72.66;97116.33;1789185;78;26274;-81
2021/01/09 05:25:55;;;;;;;37.20;20.85;;;;;;;-1.20;72.71;97117.65;1816872;77;27500;-82
2021/01/09 05:28:23;;;;;;;48.60;26.70;;;;;;;-1.28;72.57;97122.84;1838507;77;25748;-84
2021/01/09 05:30:50;;;;;;;39.75;23.98;;;;;;;-1.31;72.60;97116.51;1826217;77;25749;-85
2021/01/09 05:33:17;;;;;;;37.35;22.55;;;;;;;-1.33;72.52;97125.11;1846077;77;25714;-84
2021/01/09 05:35:50;;;;;;;38.60;21.42;;;;;;;-1.37;72.53;97122.40;1835833;77;25801;-85
2021/01/09 05:38:20;;;;;;;;;;;;;;;-1.36;72.57;97132.02;1852442;77;27701;-84
2021/01/09 05:40:48;;;;;;;48.17;22.75;;;;;;;-1.36;72.54;97133.34;1848388;77;25721;-85
2021/01/09 05:43:15;;;;;;;65.83;28.73;;;;;;;-1.37;72.59;97138.28;1848832;77;25877;-84
2021/01/09 05:45:43;;;;;;;37.33;19.62;;;;;;;-1.36;72.60;97142.61;1848872;77;26528;-82
2021/01/09 05:48:11;;;;;;;35.58;19.50;;;;;;;-1.37;72.53;97146.23;1851216;77;25600;-82
2021/01/09 05:50:41;;;;;;;28.42;15.70;;;;;;;-1.42;72.57;97155.08;1831277;77;27491;-84
2021/01/09 05:53:08;;;;;;;25.10;14.35;;;;;;;-1.42;72.55;97156.40;1848814;77;25699;-82
2021/01/09 05:55:41;;;;;;;22.13;13.88;;;;;;;-1.48;72.37;97160.95;1831072;77;25782;-82
2021/01/09 05:58:08;;;;;;;;;;;;;;;-1.58;72.41;97155.69;1851746;76;25733;-85
2021/01/09 06:00:38;;;;;;;22.27;13.28;;;;;;;-1.57;72.55;97163.95;1819024;77;25772;-85
2021/01/09 06:03:26;;;;;;;27.25;15.58;;;;;;;-1.57;72.61;97168.44;1830506;77;27547;-83
2021/01/09 06:05:54;;;;;;;34.83;16.90;;;;;;;-1.55;72.65;97175.23;1829136;77;25760;-81
2021/01/09 06:08:26;;;;;;;43.05;21.85;;;;;;;-1.52;72.63;97169.66;1848685;77;25784;-81
2021/01/09 06:10:58;;;;;;;45.35;21.95;;;;;;;-1.59;72.54;97173.03;1824915;77;27762;-81
2021/01/09 06:13:31;;;;;;;32.75;16.75;;;;;;;-1.59;72.61;97179.16;1803142;77;25772;-84
2021/01/09 06:16:07;;;;;;;40.25;20.17;;;;;;;-1.63;72.50;97186.19;1840312;77;27491;-84
2021/01/09 06:18:35;;;;;;;38.58;18.00;;;;;;;-1.79;72.45;97191.20;1823177;77;25665;-84
2021/01/09 06:21:04;;;;;;;31.42;16.40;;;;;;;-1.83;72.62;97194.64;1848777;77;25768;-82
2021/01/09 06:23:32;;;;;;;35.25;17.40;;;;;;;-1.78;72.72;97195.52;1824055;77;26881;-85
2021/01/09 06:26:02;;;;;;;35.03;17.90;;;;;;;-1.81;72.69;97204.08;1822425;77;25645;-83
2021/01/09 06:28:35;;;;;;;35.15;17.17;;;;;;;-1.83;72.71;97200.77;1802869;77;28454;-85
2021/01/09 06:31:02;;;;;;;41.63;18.75;;;;;;;-1.79;72.80;97202.63;1807596;77;25766;-85
2021/01/09 06:33:33;;;;;;;40.43;19.10;;;;;;;-1.74;72.83;97211.48;1839175;77;26276;-83
2021/01/09 06:36:02;;;;;;;57.43;28.95;;;;;;;-1.72;72.81;97210.86;1842655;77;25776;-86
2021/01/09 06:38:30;;;;;;;87.15;47.30;;;;;;;-1.70;72.77;97208.91;1818064;77;25605;-83
2021/01/09 06:40:58;;;;;;;80.20;40.67;;;;;;;-1.69;72.79;97215.36;1842696;77;27463;-83
2021/01/09 06:43:25;;;;;;;89.67;44.30;;;;;;;-1.65;72.81;97213.28;1842529;77;25296;-82
2021/01/09 06:45:53;;;;;;;87.85;41.85;;;;;;;-1.61;72.75;97223.94;1826205;77;25717;-83
2021/01/09 06:48:22;;;;;;;94.05;44.73;;;;;;;-1.60;72.69;97229.59;1830406;77;25517;-84
2021/01/09 06:50:49;;;;;;;99.25;46.30;;;;;;;-1.59;72.67;97229.45;1846952;77;25322;-81
2021/01/09 06:53:18;;;;;;;111.30;55.45;;;;;;;-1.57;72.67;97235.94;1842586;77;27485;-81
2021/01/09 06:55:51;;;;;;;119.80;60.98;;;;;;;-1.59;72.71;97225.48;1847017;77;25716;-82
2021/01/09 06:58:25;;;;;;;139.03;67.97;;;;;;;-1.60;72.68;97233.07;1820952;77;25850;-82
2021/01/09 07:00:52;;;;;;;133.70;58.83;;;;;;;-1.59;72.78;97233.91;1841611;77;25807;-84
2021/01/09 07:03:22;;;;;;;99.85;46.83;;;;;;;-1.55;72.88;97241.89;1842633;77;25741;-83
2021/01/09 07:05:51;;;;;;;98.45;45.45;;;;;;;-1.50;72.89;97237.03;1843819;77;28766;-81
2021/01/09 07:08:28;;;;;;;100.27;49.08;;;;;;;-1.48;72.88;97248.31;1826893;77;26532;-85
2021/01/09 07:11:00;;;;;;;119.20;52.43;;;;;;;-1.47;72.89;97250.00;1802806;77;25650;-84
2021/01/09 07:13:28;;;;;;;136.00;58.58;;;;;;;-1.47;72.85;97239.41;1825954;77;25802;-84
2021/01/09 07:16:14;;;;;;;183.20;72.58;;;;;;;-1.47;72.94;97236.27;1846768;77;25773;-85
2021/01/09 07:18:50;;;;;;;191.03;75.80;;;;;;;-1.47;72.89;97250.00;1820427;77;27701;-85
2021/01/09 07:21:21;;;;;;;181.35;73.40;;;;;;;-1.45;72.95;97252.02;1818081;77;25719;-82
2021/01/09 07:23:55;;;;;;;132.35;54.65;;;;;;;-1.40;73.01;97249.77;1842652;77;26344;-82
2021/01/09 07:26:24;;;;;;;97.80;44.00;;;;;;;-1.38;73.06;97251.79;1842657;77;25859;-81
2021/01/09 07:28:53;;;;;;;149.30;58.78;;;;;;;-1.35;73.09;97255.48;1845132;77;25726;-82
2021/01/09 07:31:28;;;;;;;129.70;54.45;;;;;;;-1.33;73.14;97250.89;1844231;77;27536;-84
2021/01/09 07:34:00;;;;;;;112.83;48.30;;;;;;;-1.28;73.16;97256.58;1842496;77;26207;-82
2021/01/09 07:36:30;;;;;;;122.98;52.35;;;;;;;-1.23;73.23;97251.70;1842716;77;25754;-81
2021/01/09 07:39:05;;;;;;;88.95;41.42;;;;;;;-1.15;73.29;97257.12;1844765;77;26398;-84
2021/01/09 07:41:39;;;;;;;89.83;42.08;;;;;;;-1.07;73.33;97255.56;1819957;77;25813;-83
2021/01/09 07:44:23;;;;;;;109.03;43.20;;;;;;;-1.00;73.42;97258.84;1842481;77;27282;-85
2021/01/09 07:46:57;;;;;;;128.20;47.25;;;;;;;-0.91;73.43;97258.46;1843912;77;26174;-84
2021/01/09 07:49:35;;;;;;;118.40;45.55;;;;;;;-0.84;73.42;97263.52;1823252;77;25722;-85
2021/01/09 07:52:05;;;;;;;87.27;39.50;;;;;;;-0.80;73.42;97266.23;1847026;77;26187;-83
2021/01/09 07:54:43;;;;;;;83.50;39.15;;;;;;;-0.70;73.48;97263.06;1836549;77;26101;-82
2021/01/09 07:57:25;;;;;;;88.05;40.30;;;;;;;-0.62;73.52;97269.81;1798214;77;27489;-85
2021/01/09 08:00:01;;;;;;;119.97;51.25;;;;;;;-0.57;73.61;97268.88;1793686;77;25745;-83
2021/01/09 08:02:33;;;;;;;130.85;56.95;;;;;;;-0.46;73.63;97270.02;1809639;77;25709;-86
2021/01/09 08:05:19;;;;;;;173.38;66.33;;;;;;;-0.40;73.44;97278.72;1788683;77;25667;-84
2021/01/09 08:07:57;;;;;;;186.18;74.47;;;;;;;-0.45;73.29;97276.16;1801851;77;25666;-83
2021/01/09 08:10:28;;;;;;;189.57;78.72;;;;;;;-0.42;73.32;97275.88;1820594;77;27692;-85
2021/01/09 08:13:05;;;;;;;191.40;80.40;;;;;;;-0.36;73.25;97275.27;1805244;77;26099;-83
2021/01/09 08:15:36;;;;;;;181.93;78.75;;;;;;;-0.37;73.08;97278.44;1797700;77;25775;-85
2021/01/09 08:18:08;;;;;;;190.05;80.20;;;;;;;-0.44;73.00;97276.02;1813042;77;25742;-84
2021/01/09 08:20:35;;;;;;;184.35;80.45;;;;;;;-0.42;73.15;97279.84;1842659;77;26358;-82
2021/01/09 08:23:05;;;;;;;201.32;82.65;;;;;;;-0.41;73.25;97288.98;1842580;77;28502;-83
2021/01/09 08:25:38;;;;;;;214.25;87.45;;;;;;;-0.37;73.27;97283.74;1819027;77;26353;-82
2021/01/09 08:28:06;;;;;;;221.85;89.17;;;;;;;-0.25;73.32;97292.34;1824017;77;25784;-82
2021/01/09 08:30:39;;;;;;;239.48;96.85;;;;;;;-0.15;73.35;97289.15;1825089;77;25766;-82
2021/01/09 08:33:16;;;;;;;386.67;127.55;;;;;;;0.00;73.40;97294.80;1809726;77;25996;-84
2021/01/09 08:35:50;;;;;;;306.75;103.32;;;;;;;0.16;73.45;97292.80;1809521;77;27538;-81
2021/01/09 08:38:19;;;;;;;234.15;81.95;;;;;;;0.41;73.47;97297.38;1818788;77;25725;-82
2021/01/09 08:40:47;;;;;;;67.87;34.20;;;;;;;0.64;73.32;97301.75;1809345;77;25730;-80
2021/01/09 08:43:15;;;;;;;62.55;32.70;;;;;;;0.85;73.04;97298.28;1807596;77;25823;-86
2021/01/09 08:45:52;;;;;;;54.73;27.65;;;;;;;1.02;72.55;97298.77;1824643;77;25384;-87
2021/01/09 08:48:27;;;;;;;50.17;27.73;;;;;;;1.18;72.38;97295.89;1836878;77;28684;-81
2021/01/09 08:51:15;;;;;;;72.55;35.45;;;;;;;1.27;71.99;97290.96;1821105;77;25827;-86
2021/01/09 08:54:12;;;;;;;66.40;35.98;;;;;;;1.30;71.66;97299.47;1800756;77;25806;-84
2021/01/09 08:56:40;;;;;;;101.97;49.00;;;;;;;1.40;71.55;97300.69;1802901;77;25819;-81
2021/01/09 08:59:09;;;;;;;104.20;47.58;;;;;;;1.58;71.48;97293.96;1821250;77;25800;-82
2021/01/09 09:01:48;;;;;;;90.62;42.20;;;;;;;1.70;71.36;97300.18;1811717;77;28420;-82
2021/01/09 09:04:20;;;;;;;46.00;26.05;;;;;;;1.91;71.51;97302.96;1817988;77;26105;-83
2021/01/09 09:06:55;;;;;;;55.92;29.35;;;;;;;2.19;71.14;97299.05;1800274;77;35340;-86
2021/01/09 09:09:24;;;;;;;53.50;29.18;;;;;;;2.48;70.63;97302.14;1769991;79;25828;-85
2021/01/09 09:11:53;;;;;;;44.63;24.65;;;;;;;2.74;70.42;97298.52;1803080;77;25783;-84
2021/01/09 09:14:22;;;;;;;43.78;25.12;;;;;;;2.97;70.03;97288.88;1810109;77;28407;-82
2021/01/09 09:17:05;;;;;;;48.45;27.60;;;;;;;3.16;69.69;97288.52;1842487;77;25776;-84
2021/01/09 09:19:38;;;;;;;45.45;23.38;;;;;;;3.34;69.35;97288.34;1842724;77;25784;-85
2021/01/09 09:22:06;;;;;;;45.25;25.57;;;;;;;3.49;69.06;97288.50;1842800;77;26262;-85
2021/01/09 09:24:41;;;;;;;34.92;20.05;;;;;;;3.62;68.65;97286.94;1806840;77;25340;-84
2021/01/09 09:27:28;;;;;;;33.88;19.57;;;;;;;3.74;68.32;97286.10;1842590;77;28478;-84
2021/01/09 09:30:14;;;;;;;35.73;20.25;;;;;;;3.82;67.88;97284.73;1838271;77;26127;-83
2021/01/09 09:32:44;;;;;;;43.00;24.63;;;;;;;3.77;67.40;97284.40;1803766;77;25824;-85
2021/01/09 09:35:26;;;;;;;49.95;28.07;;;;;;;3.83;66.84;97285.06;1808393;77;25816;-84
2021/01/09 09:37:58;;;;;;;46.63;27.33;;;;;;;3.80;66.93;97281.89;1832941;77;25854;-82
2021/01/09 09:40:27;;;;;;;;;;;;;;;3.91;67.02;97281.02;1821168;77;27483;-84
2021/01/09 09:42:56;;;;;;;34.88;19.45;;;;;;;4.14;66.59;97274.91;1842572;77;25772;-85
2021/01/09 09:45:23;;;;;;;32.33;18.23;;;;;;;4.31;66.74;97279.17;1835012;77;25795;-83
2021/01/09 09:47:51;;;;;;;50.67;25.40;;;;;;;4.38;66.45;97277.45;1825262;77;25751;-84
2021/01/09 09:50:21;;;;;;;51.35;25.55;;;;;;;4.54;66.19;97272.02;1836531;77;26444;-84
2021/01/09 09:53:05;;;;;;;46.05;23.60;;;;;;;4.77;65.85;97272.53;1842742;77;27665;-83
2021/01/09 09:55:33;;;;;;;33.90;19.87;;;;;;;4.94;65.55;97270.91;1842493;77;25334;-85
2021/01/09 09:58:11;;;;;;;37.00;20.48;;;;;;;5.19;65.46;97272.05;1842673;77;25752;-84
2021/01/09 10:00:47;;;;;;;32.35;18.67;;;;;;;5.29;64.95;97270.77;1842657;77;26503;-84
2021/01/09 10:03:14;;;;;;;32.78;20.32;;;;;;;5.35;64.64;97272.70;1825106;77;25899;-86
2021/01/09 10:05:42;;;;;;;37.70;21.70;;;;;;;5.51;64.49;97273.57;1837616;77;27296;-87
2021/01/09 10:08:14;;;;;;;38.65;22.73;;;;;;;5.63;64.33;97264.91;1823357;77;25797;-86
2021/01/09 10:10:43;;;;;;;40.17;23.35;;;;;;;5.83;64.05;97265.18;1834721;77;25747;-86
2021/01/09 10:13:11;;;;;;;42.20;23.98;;;;;;;6.03;63.73;97262.82;1845537;77;25783;-85
2021/01/09 10:15:39;;;;;;;37.98;24.35;;;;;;;6.21;63.65;97258.39;1818442;77;26025;-86
2021/01/09 10:18:06;;;;;;;38.05;22.98;;;;;;;6.28;63.43;97260.66;1807896;77;28380;-85
2021/01/09 10:20:34;;;;;;;40.20;24.32;;;;;;;6.35;62.85;97257.54;1807796;77;26126;-84
2021/01/09 10:23:02;;;;;;;41.10;23.92;;;;;;;6.50;62.73;97254.31;1810622;77;25735;-86
2021/01/09 10:25:29;;;;;;;67.85;30.48;;;;;;;6.64;62.25;97252.07;1845746;77;26682;-84
2021/01/09 10:27:57;;;;;;;64.20;31.57;;;;;;;6.74;62.08;97255.30;1857944;77;25743;-84
2021/01/09 10:30:24;;;;;;;58.55;30.02;;;;;;;6.78;61.73;97256.56;1857995;77;27471;-85
2021/01/09 10:32:52;;;;;;;40.10;24.55;;;;;;;6.78;61.27;97257.91;1857711;77;25662;-87
2021/01/09 10:35:19;;;;;;;35.95;22.05;;;;;;;6.59;61.35;97256.36;1857923;77;25847;-84
2021/01/09 10:37:48;;;;;;;28.90;16.87;;;;;;;6.17;60.59;97259.27;1857847;77;26456;-85
2021/01/09 10:40:15;;;;;;;19.75;10.85;;;;;;;5.75;60.13;97254.56;1857934;77;25857;-86
2021/01/09 10:42:43;;;;;;;14.68;9.18;;;;;;;5.50;59.97;97251.83;1858077;77;27557;-87
2021/01/09 10:45:14;;;;;;;13.62;8.68;;;;;;;5.53;60.15;97250.13;1857733;77;26130;-88
2021/01/09 10:47:42;;;;;;;21.93;13.70;;;;;;;5.62;59.92;97251.19;1857861;77;25824;-84
2021/01/09 10:50:11;;;;;;;19.48;12.68;;;;;;;5.60;59.55;97249.70;1857701;77;25807;-86
2021/01/09 10:52:38;;;;;;;16.17;10.80;;;;;;;5.39;59.49;97251.27;1857954;77;25895;-85
2021/01/09 10:55:07;;;;;;;15.23;10.05;;;;;;;5.13;59.04;97253.52;1857921;77;27689;-85
2021/01/09 10:57:34;;;;;;;21.17;11.03;;;;;;;5.00;59.24;97255.97;1857806;77;25633;-84
2021/01/09 11:00:03;;;;;;;18.30;10.80;;;;;;;4.93;59.20;97254.53;1857842;77;25627;-88
2021/01/09 11:02:31;;;;;;;18.23;10.48;;;;;;;4.85;59.32;97249.73;1825806;77;26513;-85
2021/01/09 11:04:58;;;;;;;18.20;10.80;;;;;;;4.67;59.06;97260.24;1841879;77;25851;-88
2021/01/09 11:07:26;;;;;;;18.52;11.10;;;;;;;4.67;59.13;97252.22;1857762;77;27745;-85
2021/01/09 11:09:53;;;;;;;16.12;9.70;;;;;;;4.86;59.05;97246.88;1842039;77;26172;-86
2021/01/09 11:12:23;;;;;;;16.55;9.78;;;;;;;4.97;59.10;97248.30;1850513;77;25669;-85
2021/01/09 11:14:52;;;;;;;16.57;9.85;;;;;;;5.34;59.17;97248.30;1857887;77;26535;-87
2021/01/09 11:17:20;;;;;;;13.65;9.15;;;;;;;5.71;58.83;97249.25;1857953;77;25763;-88
2021/01/09 11:19:47;;;;;;;22.98;12.55;;;;;;;6.01;58.69;97248.27;1832953;77;27489;-86
2021/01/09 11:22:14;;;;;;;24.30;13.53;;;;;;;6.31;58.26;97249.54;1857778;77;26298;-88
2021/01/09 11:24:42;;;;;;;39.20;20.37;;;;;;;6.18;57.74;97250.72;1855395;77;25987;-87
2021/01/09 11:27:10;;;;;;;28.67;15.55;;;;;;;6.04;57.87;97249.20;1827680;77;25784;-86
2021/01/09 11:29:37;;;;;;;37.75;19.17;;;;;;;5.86;58.04;97255.95;1842564;77;25701;-86
2021/01/09 11:32:06;;;;;;;26.20;14.93;;;;;;;5.61;57.68;97248.19;1842565;77;27693;-86